sensor_id;sensor_type;location;lat;lon;timestamp;temperature;humidity
45383;DHT22;42455;51.660;5.824;2023-06-10T00:02:21;23.4;63.0
45383;DHT22;42455;51.660;5.824;2023-06-10T00:07:28;23.3;63.5
45383;DHT22;42455;51.660;5.824;2023-06-10T00:12:34;23.2;63.5
45383;DHT22;42455;51.660;5.824;2023-06-10T00:17:40;23.2;63.5
45383;DHT22;42455;51.660;5.824;2023-06-10T00:22:46;23.1;64.0
45383;DHT22;42455;51.660;5.824;2023-06-10T00:27:53;23.0;64.0
45383;DHT22;42455;51.660;5.824;2023-06-10T00:32:59;23.0;64.5
45383;DHT22;42455;51.660;5.824;2023-06-10T00:38:05;22.9;64.5
45383;DHT22;42455;51.660;5.824;2023-06-10T00:43:11;22.8;65.0
45383;DHT22;42455;51.660;5.824;2023-06-10T00:48:17;22.7;65.0
45383;DHT22;42455;51.660;5.824;2023-06-10T00:53:24;22.7;65.5
45383;DHT22;42455;51.660;5.824;2023-06-10T00:58:30;22.6;65.5
45383;DHT22;42455;51.660;5.824;2023-06-10T01:03:36;22.4;66.0
45383;DHT22;42455;51.660;5.824;2023-06-10T01:08:49;22.3;66.5
45383;DHT22;42455;51.660;5.824;2023-06-10T01:13:50;22.2;67.0
45383;DHT22;42455;51.660;5.824;2023-06-10T01:18:55;22.1;67.5
45383;DHT22;42455;51.660;5.824;2023-06-10T01:24:01;22.1;67.5
45383;DHT22;42455;51.660;5.824;2023-06-10T01:29:14;22.0;68.0
45383;DHT22;42455;51.660;5.824;2023-06-10T01:34:17;21.9;68.0
45383;DHT22;42455;51.660;5.824;2023-06-10T01:39:22;21.8;68.5
45383;DHT22;42455;51.660;5.824;2023-06-10T01:44:26;21.8;68.5
45383;DHT22;42455;51.660;5.824;2023-06-10T01:49:32;21.7;69.0
45383;DHT22;42455;51.660;5.824;2023-06-10T01:54:38;21.7;69.0
45383;DHT22;42455;51.660;5.824;2023-06-10T01:59:44;21.6;69.5
45383;DHT22;42455;51.660;5.824;2023-06-10T02:04:50;21.6;69.5
45383;DHT22;42455;51.660;5.824;2023-06-10T02:09:57;21.5;70.0
45383;DHT22;42455;51.660;5.824;2023-06-10T02:15:03;21.4;70.0
45383;DHT22;42455;51.660;5.824;2023-06-10T02:20:10;21.4;70.5
45383;DHT22;42455;51.660;5.824;2023-06-10T02:25:15;21.3;70.5
45383;DHT22;42455;51.660;5.824;2023-06-10T02:30:21;21.3;70.5
45383;DHT22;42455;51.660;5.824;2023-06-10T02:35:28;21.2;71.0
45383;DHT22;42455;51.660;5.824;2023-06-10T02:40:34;21.2;71.0
45383;DHT22;42455;51.660;5.824;2023-06-10T02:45:40;21.1;71.0
45383;DHT22;42455;51.660;5.824;2023-06-10T02:50:46;21.1;71.0
45383;DHT22;42455;51.660;5.824;2023-06-10T02:55:53;21.1;71.5
45383;DHT22;42455;51.660;5.824;2023-06-10T03:00:59;21.0;71.5
45383;DHT22;42455;51.660;5.824;2023-06-10T03:06:05;21.0;71.5
45383;DHT22;42455;51.660;5.824;2023-06-10T03:11:11;20.9;71.5
45383;DHT22;42455;51.660;5.824;2023-06-10T03:16:17;20.9;71.5
45383;DHT22;42455;51.660;5.824;2023-06-10T03:21:24;20.8;71.5
45383;DHT22;42455;51.660;5.824;2023-06-10T03:26:30;20.8;72.0
45383;DHT22;42455;51.660;5.824;2023-06-10T03:31:36;20.7;72.0
45383;DHT22;42455;51.660;5.824;2023-06-10T03:36:42;20.6;72.0
45383;DHT22;42455;51.660;5.824;2023-06-10T03:41:48;20.6;72.0
45383;DHT22;42455;51.660;5.824;2023-06-10T03:46:55;20.6;72.0
45383;DHT22;42455;51.660;5.824;2023-06-10T03:52:01;20.5;72.0
45383;DHT22;42455;51.660;5.824;2023-06-10T03:57:07;20.5;72.5
45383;DHT22;42455;51.660;5.824;2023-06-10T04:02:13;20.5;72.5
45383;DHT22;42455;51.660;5.824;2023-06-10T04:07:19;20.4;72.5
45383;DHT22;42455;51.660;5.824;2023-06-10T04:12:26;20.4;72.5
45383;DHT22;42455;51.660;5.824;2023-06-10T04:17:32;20.4;72.5
45383;DHT22;42455;51.660;5.824;2023-06-10T04:22:38;20.4;73.0
45383;DHT22;42455;51.660;5.824;2023-06-10T04:27:44;20.4;73.0
45383;DHT22;42455;51.660;5.824;2023-06-10T04:32:51;20.4;73.0
45383;DHT22;42455;51.660;5.824;2023-06-10T04:37:57;20.4;73.0
45383;DHT22;42455;51.660;5.824;2023-06-10T04:43:03;20.5;73.0
45383;DHT22;42455;51.660;5.824;2023-06-10T04:48:09;20.5;73.0
45383;DHT22;42455;51.660;5.824;2023-06-10T04:58:22;20.6;73.5
45383;DHT22;42455;51.660;5.824;2023-06-10T05:03:27;20.7;73.5
45383;DHT22;42455;51.660;5.824;2023-06-10T05:08:33;20.8;73.5
45383;DHT22;42455;51.660;5.824;2023-06-10T05:13:41;20.9;73.5
45383;DHT22;42455;51.660;5.824;2023-06-10T05:18:45;21.0;73.5
45383;DHT22;42455;51.660;5.824;2023-06-10T05:23:52;21.1;73.5
45383;DHT22;42455;51.660;5.824;2023-06-10T05:28:58;21.2;73.5
45383;DHT22;42455;51.660;5.824;2023-06-10T05:34:04;21.3;73.5
45383;DHT22;42455;51.660;5.824;2023-06-10T05:39:10;21.4;73.5
45383;DHT22;42455;51.660;5.824;2023-06-10T05:44:16;21.5;73.0
45383;DHT22;42455;51.660;5.824;2023-06-10T05:49:23;21.6;73.0
45383;DHT22;42455;51.660;5.824;2023-06-10T05:54:29;21.7;72.5
45383;DHT22;42455;51.660;5.824;2023-06-10T05:59:35;21.8;72.5
45383;DHT22;42455;51.660;5.824;2023-06-10T06:04:41;21.9;72.5
45383;DHT22;42455;51.660;5.824;2023-06-10T06:09:47;22.1;72.0
45383;DHT22;42455;51.660;5.824;2023-06-10T06:14:54;22.3;72.0
45383;DHT22;42455;51.660;5.824;2023-06-10T06:20:00;22.5;71.5
45383;DHT22;42455;51.660;5.824;2023-06-10T06:25:06;22.7;71.0
45383;DHT22;42455;51.660;5.824;2023-06-10T06:30:12;22.9;71.0
45383;DHT22;42455;51.660;5.824;2023-06-10T06:40:25;23.4;69.5
45383;DHT22;42455;51.660;5.824;2023-06-10T06:45:31;23.5;69.0
45383;DHT22;42455;51.660;5.824;2023-06-10T06:55:43;24.0;68.0
45383;DHT22;42455;51.660;5.824;2023-06-10T07:00:50;24.2;67.5
45383;DHT22;42455;51.660;5.824;2023-06-10T07:05:56;24.4;67.5
45383;DHT22;42455;51.660;5.824;2023-06-10T07:11:02;24.6;67.0
45383;DHT22;42455;51.660;5.824;2023-06-10T07:16:08;24.9;66.5
45383;DHT22;42455;51.660;5.824;2023-06-10T07:21:14;25.1;66.0
45383;DHT22;42455;51.660;5.824;2023-06-10T07:26:22;25.3;65.5
45383;DHT22;42455;51.660;5.824;2023-06-10T07:31:27;25.4;65.0
45383;DHT22;42455;51.660;5.824;2023-06-10T07:36:33;25.6;64.5
45383;DHT22;42455;51.660;5.824;2023-06-10T07:41:39;25.8;64.5
45383;DHT22;42455;51.660;5.824;2023-06-10T07:46:45;26.0;64.0
45383;DHT22;42455;51.660;5.824;2023-06-10T07:51:53;26.3;63.5
45383;DHT22;42455;51.660;5.824;2023-06-10T07:56:58;26.5;63.0
45383;DHT22;42455;51.660;5.824;2023-06-10T08:02:04;26.8;62.5
45383;DHT22;42455;51.660;5.824;2023-06-10T08:07:10;26.9;62.0
45383;DHT22;42455;51.660;5.824;2023-06-10T08:12:17;27.1;61.5
45383;DHT22;42455;51.660;5.824;2023-06-10T08:17:23;27.2;61.5
45383;DHT22;42455;51.660;5.824;2023-06-10T08:22:29;27.4;61.0
45383;DHT22;42455;51.660;5.824;2023-06-10T08:27:35;27.5;60.5
45383;DHT22;42455;51.660;5.824;2023-06-10T08:32:42;27.7;60.0
45383;DHT22;42455;51.660;5.824;2023-06-10T08:37:48;27.8;60.0
45383;DHT22;42455;51.660;5.824;2023-06-10T08:43:06;28.0;59.5
45383;DHT22;42455;51.660;5.824;2023-06-10T08:48:02;28.1;59.0
45383;DHT22;42455;51.660;5.824;2023-06-10T08:53:07;28.2;59.0
45383;DHT22;42455;51.660;5.824;2023-06-10T08:58:13;28.4;59.0
45383;DHT22;42455;51.660;5.824;2023-06-10T09:03:19;28.6;59.0
45383;DHT22;42455;51.660;5.824;2023-06-10T09:08:25;28.7;59.0
45383;DHT22;42455;51.660;5.824;2023-06-10T09:13:31;29.0;58.5
45383;DHT22;42455;51.660;5.824;2023-06-10T09:18:37;29.1;58.0
45383;DHT22;42455;51.660;5.824;2023-06-10T09:23:44;29.3;57.5
45383;DHT22;42455;51.660;5.824;2023-06-10T09:28:50;29.5;57.0
45383;DHT22;42455;51.660;5.824;2023-06-10T09:34:03;29.6;57.0
45383;DHT22;42455;51.660;5.824;2023-06-10T09:39:05;29.7;57.0
45383;DHT22;42455;51.660;5.824;2023-06-10T09:44:12;29.9;57.0
45383;DHT22;42455;51.660;5.824;2023-06-10T09:49:15;30.0;56.0
45383;DHT22;42455;51.660;5.824;2023-06-10T09:54:21;30.2;56.0
45383;DHT22;42455;51.660;5.824;2023-06-10T09:59:29;30.3;56.0
45383;DHT22;42455;51.660;5.824;2023-06-10T10:04:35;30.4;55.5
45383;DHT22;42455;51.660;5.824;2023-06-10T10:09:41;30.5;54.5
45383;DHT22;42455;51.660;5.824;2023-06-10T10:14:46;30.6;55.0
45383;DHT22;42455;51.660;5.824;2023-06-10T10:19:53;30.8;54.5
45383;DHT22;42455;51.660;5.824;2023-06-10T10:25:01;30.9;54.0
45383;DHT22;42455;51.660;5.824;2023-06-10T10:30:06;31.0;53.0
45383;DHT22;42455;51.660;5.824;2023-06-10T10:35:12;31.0;52.5
45383;DHT22;42455;51.660;5.824;2023-06-10T10:40:16;31.2;53.0
45383;DHT22;42455;51.660;5.824;2023-06-10T10:45:22;31.3;52.5
45383;DHT22;42455;51.660;5.824;2023-06-10T10:50:28;31.4;51.5
45383;DHT22;42455;51.660;5.824;2023-06-10T10:55:34;31.5;52.0
45383;DHT22;42455;51.660;5.824;2023-06-10T11:00:44;31.6;51.5
45383;DHT22;42455;51.660;5.824;2023-06-10T11:05:48;31.7;50.5
45383;DHT22;42455;51.660;5.824;2023-06-10T11:10:52;31.7;50.5
45383;DHT22;42455;51.660;5.824;2023-06-10T11:15:58;31.8;50.0
45383;DHT22;42455;51.660;5.824;2023-06-10T11:21:05;31.9;49.5
45383;DHT22;42455;51.660;5.824;2023-06-10T11:26:31;32.0;49.0
45383;DHT22;42455;51.660;5.824;2023-06-10T11:31:21;32.1;49.0
45383;DHT22;42455;51.660;5.824;2023-06-10T11:36:24;32.2;49.0
45383;DHT22;42455;51.660;5.824;2023-06-10T11:41:30;32.3;48.5
45383;DHT22;42455;51.660;5.824;2023-06-10T11:46:36;32.3;47.5
45383;DHT22;42455;51.660;5.824;2023-06-10T11:51:42;32.4;47.0
45383;DHT22;42455;51.660;5.824;2023-06-10T11:56:48;32.5;47.0
45383;DHT22;42455;51.660;5.824;2023-06-10T12:01:55;32.6;46.5
45383;DHT22;42455;51.660;5.824;2023-06-10T12:07:00;32.7;46.5
45383;DHT22;42455;51.660;5.824;2023-06-10T12:12:07;32.7;46.5
45383;DHT22;42455;51.660;5.824;2023-06-10T12:17:13;32.8;46.5
45383;DHT22;42455;51.660;5.824;2023-06-10T12:22:19;32.9;46.0
45383;DHT22;42455;51.660;5.824;2023-06-10T12:27:25;33.0;45.5
45383;DHT22;42455;51.660;5.824;2023-06-10T12:32:35;33.1;45.0
45383;DHT22;42455;51.660;5.824;2023-06-10T12:37:38;33.1;45.0
45383;DHT22;42455;51.660;5.824;2023-06-10T12:42:44;33.2;45.0
45383;DHT22;42455;51.660;5.824;2023-06-10T12:47:50;33.3;44.5
45383;DHT22;42455;51.660;5.824;2023-06-10T12:52:56;33.4;44.5
45383;DHT22;42455;51.660;5.824;2023-06-10T12:58:03;33.5;43.5
45383;DHT22;42455;51.660;5.824;2023-06-10T13:03:09;33.6;43.5
45383;DHT22;42455;51.660;5.824;2023-06-10T13:08:15;33.5;43.5
45383;DHT22;42455;51.660;5.824;2023-06-10T13:13:21;33.6;43.5
45383;DHT22;42455;51.660;5.824;2023-06-10T13:18:27;33.6;43.0
45383;DHT22;42455;51.660;5.824;2023-06-10T13:23:34;33.6;42.5
45383;DHT22;42455;51.660;5.824;2023-06-10T13:28:40;33.7;42.0
45383;DHT22;42455;51.660;5.824;2023-06-10T13:33:46;33.8;42.0
45383;DHT22;42455;51.660;5.824;2023-06-10T13:38:52;33.8;42.0
45383;DHT22;42455;51.660;5.824;2023-06-10T13:43:58;33.8;41.5
45383;DHT22;42455;51.660;5.824;2023-06-10T13:49:05;33.7;41.5
45383;DHT22;42455;51.660;5.824;2023-06-10T13:54:11;33.7;41.0
45383;DHT22;42455;51.660;5.824;2023-06-10T13:59:18;33.8;41.5
45383;DHT22;42455;51.660;5.824;2023-06-10T14:04:23;34.0;41.0
45383;DHT22;42455;51.660;5.824;2023-06-10T14:09:30;34.0;41.0
45383;DHT22;42455;51.660;5.824;2023-06-10T14:14:36;34.2;41.5
45383;DHT22;42455;51.660;5.824;2023-06-10T14:19:42;34.3;40.5
45383;DHT22;42455;51.660;5.824;2023-06-10T14:24:48;34.3;41.0
45383;DHT22;42455;51.660;5.824;2023-06-10T14:29:54;34.4;40.5
45383;DHT22;42455;51.660;5.824;2023-06-10T14:35:01;34.3;39.5
45383;DHT22;42455;51.660;5.824;2023-06-10T14:40:07;34.3;40.0
45383;DHT22;42455;51.660;5.824;2023-06-10T14:45:13;34.3;40.0
45383;DHT22;42455;51.660;5.824;2023-06-10T14:50:19;34.2;39.5
45383;DHT22;42455;51.660;5.824;2023-06-10T14:55:25;34.2;40.0
45383;DHT22;42455;51.660;5.824;2023-06-10T15:00:32;34.2;40.0
45383;DHT22;42455;51.660;5.824;2023-06-10T15:05:38;34.2;40.0
45383;DHT22;42455;51.660;5.824;2023-06-10T15:10:44;34.2;40.0
45383;DHT22;42455;51.660;5.824;2023-06-10T15:15:50;34.3;40.5
45383;DHT22;42455;51.660;5.824;2023-06-10T15:20:56;34.3;40.5
45383;DHT22;42455;51.660;5.824;2023-06-10T15:26:03;34.3;40.5
45383;DHT22;42455;51.660;5.824;2023-06-10T15:31:09;34.3;40.0
45383;DHT22;42455;51.660;5.824;2023-06-10T15:36:15;34.3;40.0
45383;DHT22;42455;51.660;5.824;2023-06-10T15:41:21;34.3;39.5
45383;DHT22;42455;51.660;5.824;2023-06-10T15:46:28;34.3;39.5
45383;DHT22;42455;51.660;5.824;2023-06-10T15:51:34;34.3;39.5
45383;DHT22;42455;51.660;5.824;2023-06-10T15:56:40;34.4;39.5
45383;DHT22;42455;51.660;5.824;2023-06-10T16:01:46;34.3;39.5
45383;DHT22;42455;51.660;5.824;2023-06-10T16:06:52;34.4;40.0
45383;DHT22;42455;51.660;5.824;2023-06-10T16:11:59;34.5;40.0
45383;DHT22;42455;51.660;5.824;2023-06-10T16:17:05;34.5;39.0
45383;DHT22;42455;51.660;5.824;2023-06-10T16:22:11;34.5;39.0
45383;DHT22;42455;51.660;5.824;2023-06-10T16:27:17;34.4;39.0
45383;DHT22;42455;51.660;5.824;2023-06-10T16:32:22;34.4;39.0
45383;DHT22;42455;51.660;5.824;2023-06-10T16:37:29;34.4;39.0
45383;DHT22;42455;51.660;5.824;2023-06-10T16:42:35;34.3;39.0
45383;DHT22;42455;51.660;5.824;2023-06-10T16:47:41;34.3;39.0
45383;DHT22;42455;51.660;5.824;2023-06-10T16:52:47;34.2;39.0
45383;DHT22;42455;51.660;5.824;2023-06-10T16:57:53;34.2;39.5
45383;DHT22;42455;51.660;5.824;2023-06-10T17:03:00;34.1;39.5
45383;DHT22;42455;51.660;5.824;2023-06-10T17:08:06;34.0;39.0
45383;DHT22;42455;51.660;5.824;2023-06-10T17:13:12;33.9;39.5
45383;DHT22;42455;51.660;5.824;2023-06-10T17:18:18;33.8;39.5
45383;DHT22;42455;51.660;5.824;2023-06-10T17:23:25;33.7;40.0
45383;DHT22;42455;51.660;5.824;2023-06-10T17:28:31;33.7;40.0
45383;DHT22;42455;51.660;5.824;2023-06-10T17:33:37;33.7;40.5
45383;DHT22;42455;51.660;5.824;2023-06-10T17:38:43;33.7;40.5
45383;DHT22;42455;51.660;5.824;2023-06-10T17:43:49;33.6;40.5
45383;DHT22;42455;51.660;5.824;2023-06-10T17:48:56;33.5;40.5
45383;DHT22;42455;51.660;5.824;2023-06-10T17:54:02;33.4;40.5
45383;DHT22;42455;51.660;5.824;2023-06-10T17:59:08;33.3;40.5
45383;DHT22;42455;51.660;5.824;2023-06-10T18:04:14;33.2;41.0
45383;DHT22;42455;51.660;5.824;2023-06-10T18:09:21;33.1;41.5
45383;DHT22;42455;51.660;5.824;2023-06-10T18:14:27;32.8;41.5
45383;DHT22;42455;51.660;5.824;2023-06-10T18:19:33;32.6;41.5
45383;DHT22;42455;51.660;5.824;2023-06-10T18:24:39;32.5;42.5
45383;DHT22;42455;51.660;5.824;2023-06-10T18:29:45;32.3;42.5
45383;DHT22;42455;51.660;5.824;2023-06-10T18:34:51;32.1;43.5
45383;DHT22;42455;51.660;5.824;2023-06-10T18:39:58;31.8;44.0
45383;DHT22;42455;51.660;5.824;2023-06-10T18:45:05;31.5;44.5
45383;DHT22;42455;51.660;5.824;2023-06-10T18:50:10;31.3;45.0
45383;DHT22;42455;51.660;5.824;2023-06-10T18:55:17;31.0;45.0
45383;DHT22;42455;51.660;5.824;2023-06-10T19:00:23;30.7;45.5
45383;DHT22;42455;51.660;5.824;2023-06-10T19:05:29;30.5;46.5
45383;DHT22;42455;51.660;5.824;2023-06-10T19:10:35;30.2;46.5
45383;DHT22;42455;51.660;5.824;2023-06-10T19:15:41;29.9;47.0
45383;DHT22;42455;51.660;5.824;2023-06-10T19:20:47;29.7;47.5
45383;DHT22;42455;51.660;5.824;2023-06-10T19:25:54;29.4;48.0
45383;DHT22;42455;51.660;5.824;2023-06-10T19:31:00;29.1;48.5
45383;DHT22;42455;51.660;5.824;2023-06-10T19:36:06;28.9;49.0
45383;DHT22;42455;51.660;5.824;2023-06-10T19:41:12;28.7;49.5
45383;DHT22;42455;51.660;5.824;2023-06-10T19:46:18;28.5;50.0
45383;DHT22;42455;51.660;5.824;2023-06-10T19:51:25;28.3;50.5
45383;DHT22;42455;51.660;5.824;2023-06-10T19:56:31;28.1;50.5
45383;DHT22;42455;51.660;5.824;2023-06-10T20:01:37;27.9;51.0
45383;DHT22;42455;51.660;5.824;2023-06-10T20:06:43;27.8;51.5
45383;DHT22;42455;51.660;5.824;2023-06-10T20:11:50;27.6;52.0
45383;DHT22;42455;51.660;5.824;2023-06-10T20:16:56;27.5;52.5
45383;DHT22;42455;51.660;5.824;2023-06-10T20:22:02;27.3;52.5
45383;DHT22;42455;51.660;5.824;2023-06-10T20:27:08;27.2;53.0
45383;DHT22;42455;51.660;5.824;2023-06-10T20:32:14;27.1;53.0
45383;DHT22;42455;51.660;5.824;2023-06-10T20:37:21;27.0;53.5
45383;DHT22;42455;51.660;5.824;2023-06-10T20:42:27;26.9;54.0
45383;DHT22;42455;51.660;5.824;2023-06-10T20:47:33;26.7;54.0
45383;DHT22;42455;51.660;5.824;2023-06-10T20:52:39;26.6;54.5
45383;DHT22;42455;51.660;5.824;2023-06-10T20:57:46;0.0;0.0
45383;DHT22;42455;51.660;5.824;2023-06-10T21:02:52;26.4;55.0
45383;DHT22;42455;51.660;5.824;2023-06-10T21:07:58;26.3;55.0
45383;DHT22;42455;51.660;5.824;2023-06-10T21:13:04;26.2;55.5
45383;DHT22;42455;51.660;5.824;2023-06-10T21:18:11;26.1;55.5
45383;DHT22;42455;51.660;5.824;2023-06-10T21:23:17;26.0;56.0
45383;DHT22;42455;51.660;5.824;2023-06-10T21:28:23;25.9;56.5
45383;DHT22;42455;51.660;5.824;2023-06-10T21:33:29;25.8;56.5
45383;DHT22;42455;51.660;5.824;2023-06-10T21:38:35;25.7;56.5
45383;DHT22;42455;51.660;5.824;2023-06-10T21:43:42;25.6;57.0
45383;DHT22;42455;51.660;5.824;2023-06-10T21:48:48;25.4;57.0
45383;DHT22;42455;51.660;5.824;2023-06-10T21:53:54;25.4;57.5
45383;DHT22;42455;51.660;5.824;2023-06-10T21:59:00;25.3;58.0
45383;DHT22;42455;51.660;5.824;2023-06-10T22:04:06;25.2;58.0
45383;DHT22;42455;51.660;5.824;2023-06-10T22:09:12;25.1;58.5
45383;DHT22;42455;51.660;5.824;2023-06-10T22:14:18;25.0;59.0
45383;DHT22;42455;51.660;5.824;2023-06-10T22:19:24;24.9;59.0
45383;DHT22;42455;51.660;5.824;2023-06-10T22:24:30;24.9;59.5
45383;DHT22;42455;51.660;5.824;2023-06-10T22:29:37;24.8;59.5
45383;DHT22;42455;51.660;5.824;2023-06-10T22:39:49;24.6;60.0
45383;DHT22;42455;51.660;5.824;2023-06-10T22:44:55;24.6;60.0
45383;DHT22;42455;51.660;5.824;2023-06-10T22:50:01;24.5;60.5
45383;DHT22;42455;51.660;5.824;2023-06-10T22:55:08;24.4;61.0
45383;DHT22;42455;51.660;5.824;2023-06-10T23:00:15;24.4;61.0
45383;DHT22;42455;51.660;5.824;2023-06-10T23:05:20;24.3;61.5
45383;DHT22;42455;51.660;5.824;2023-06-10T23:10:26;24.2;61.5
45383;DHT22;42455;51.660;5.824;2023-06-10T23:15:32;24.1;62.0
45383;DHT22;42455;51.660;5.824;2023-06-10T23:20:39;24.0;62.0
45383;DHT22;42455;51.660;5.824;2023-06-10T23:25:45;24.0;62.5
45383;DHT22;42455;51.660;5.824;2023-06-10T23:30:51;23.9;63.0
45383;DHT22;42455;51.660;5.824;2023-06-10T23:35:57;23.8;63.5
45383;DHT22;42455;51.660;5.824;2023-06-10T23:41:04;23.7;63.5
45383;DHT22;42455;51.660;5.824;2023-06-10T23:46:10;23.7;64.0
45383;DHT22;42455;51.660;5.824;2023-06-10T23:51:16;23.6;64.5
45383;DHT22;42455;51.660;5.824;2023-06-10T23:56:23;23.5;64.5
